createdAt,value
2023-07-07T00:02:08.670Z,3.15
2023-07-07T00:04:36.616Z,3.10
2023-07-07T00:07:04.301Z,2.95
2023-07-07T00:09:32.023Z,3.13
2023-07-07T00:12:01.121Z,3.60
2023-07-07T00:14:29.430Z,3.03
2023-07-07T00:17:02.721Z,3.30
2023-07-07T00:19:34.132Z,3.30
2023-07-07T00:22:02.168Z,3.08
2023-07-07T00:24:30.035Z,3.20
2023-07-07T00:26:57.736Z,3.42
2023-07-07T00:29:25.620Z,3.45
2023-07-07T00:31:53.198Z,3.33
2023-07-07T00:34:22.984Z,3.38
2023-07-07T00:36:50.692Z,4.35
2023-07-07T00:39:18.251Z,4.00
2023-07-07T00:41:46.212Z,3.78
2023-07-07T00:44:14.018Z,4.38
2023-07-07T00:46:44.021Z,3.60
2023-07-07T00:49:14.113Z,4.43
2023-07-07T00:51:46.055Z,4.18
2023-07-07T00:54:15.636Z,4.18
2023-07-07T00:56:46.350Z,4.35
2023-07-07T00:59:16.737Z,4.32
2023-07-07T01:01:44.771Z,4.65
2023-07-07T01:04:14.472Z,4.57
2023-07-07T01:06:45.557Z,5.10
2023-07-07T01:09:13.157Z,4.82
2023-07-07T01:11:41.176Z,4.40
2023-07-07T01:14:11.823Z,5.35
2023-07-07T01:16:41.974Z,4.57
2023-07-07T01:19:17.901Z,4.95
2023-07-07T01:21:55.427Z,5.32
2023-07-07T01:24:37.033Z,5.30
2023-07-07T01:27:15.732Z,5.72
2023-07-07T01:30:03.516Z,6.00
2023-07-07T01:32:33.879Z,5.60
2023-07-07T01:35:06.319Z,5.45
2023-07-07T01:37:34.012Z,5.25
2023-07-07T01:40:03.754Z,5.55
2023-07-07T01:42:36.405Z,5.60
2023-07-07T01:45:08.143Z,5.32
2023-07-07T01:47:39.213Z,5.63
2023-07-07T01:50:09.074Z,6.10
2023-07-07T01:52:37.649Z,5.45
2023-07-07T01:55:08.533Z,5.53
2023-07-07T01:57:36.556Z,6.18
2023-07-07T02:00:04.944Z,5.75
2023-07-07T02:02:33.283Z,6.15
2023-07-07T02:05:02.480Z,5.88
2023-07-07T02:07:30.136Z,5.72
2023-07-07T02:09:57.699Z,5.82
2023-07-07T02:12:25.915Z,5.80
2023-07-07T02:14:53.577Z,6.13
2023-07-07T02:17:21.691Z,6.10
2023-07-07T02:19:49.404Z,6.40
2023-07-07T02:22:18.849Z,6.43
2023-07-07T02:24:46.561Z,5.88
2023-07-07T02:27:14.307Z,6.38
2023-07-07T02:29:44.105Z,6.88
2023-07-07T02:32:11.836Z,6.20
2023-07-07T02:34:41.670Z,6.03
2023-07-07T02:37:14.037Z,6.22
2023-07-07T02:39:43.640Z,5.82
2023-07-07T02:42:11.809Z,6.05
2023-07-07T02:44:39.869Z,5.95
2023-07-07T02:47:08.029Z,6.53
2023-07-07T02:49:35.953Z,5.85
2023-07-07T02:52:04.763Z,5.85
2023-07-07T02:54:32.483Z,6.80
2023-07-07T02:57:02.601Z,6.35
2023-07-07T02:59:30.301Z,6.22
2023-07-07T03:01:58.363Z,6.72
2023-07-07T03:04:29.358Z,6.90
2023-07-07T03:06:57.181Z,5.68
2023-07-07T03:09:25.081Z,6.45
2023-07-07T03:11:55.694Z,6.57
2023-07-07T03:14:27.897Z,5.80
2023-07-07T03:16:58.234Z,6.57
2023-07-07T03:19:32.875Z,6.43
2023-07-07T03:22:10.897Z,7.05
2023-07-07T03:24:47.083Z,6.43
2023-07-07T03:27:22.915Z,7.05
2023-07-07T03:29:52.430Z,6.32
2023-07-07T03:32:23.182Z,6.85
2023-07-07T03:34:57.779Z,6.43
2023-07-07T03:37:26.439Z,6.47
2023-07-07T03:39:54.873Z,7.20
2023-07-07T03:42:22.521Z,8.35
2023-07-07T03:44:52.342Z,6.07
2023-07-07T03:47:21.105Z,6.30
2023-07-07T03:49:49.900Z,6.10
2023-07-07T03:52:18.262Z,5.82
2023-07-07T03:54:46.099Z,6.00
2023-07-07T03:57:14.308Z,5.85
2023-07-07T03:59:41.952Z,6.07
2023-07-07T04:02:11.215Z,5.88
2023-07-07T04:04:38.950Z,6.07
2023-07-07T04:07:06.675Z,6.05
2023-07-07T04:09:34.257Z,6.25
2023-07-07T04:12:02.314Z,5.47
2023-07-07T04:14:30.451Z,5.53
2023-07-07T04:16:58.493Z,5.97
2023-07-07T04:19:27.498Z,5.70
2023-07-07T04:21:55.403Z,5.85
2023-07-07T04:24:23.170Z,6.00
2023-07-07T04:26:51.751Z,5.50
2023-07-07T04:29:19.352Z,5.10
2023-07-07T04:31:47.201Z,5.72
2023-07-07T04:34:16.611Z,5.45
2023-07-07T04:36:46.287Z,5.88
2023-07-07T04:39:14.351Z,5.97
2023-07-07T04:41:41.936Z,5.78
2023-07-07T04:44:09.881Z,5.32
2023-07-07T04:46:38.820Z,5.75
2023-07-07T04:49:08.828Z,5.78
2023-07-07T04:51:37.216Z,5.55
2023-07-07T04:54:06.903Z,5.60
2023-07-07T04:56:35.329Z,5.63
2023-07-07T04:59:04.184Z,5.50
2023-07-07T05:01:32.914Z,15.80
2023-07-07T05:04:01.781Z,5.68
2023-07-07T05:06:30.658Z,5.78
2023-07-07T05:08:58.219Z,5.35
2023-07-07T05:11:27.956Z,5.60
2023-07-07T05:13:55.710Z,5.80
2023-07-07T05:16:24.241Z,5.32
2023-07-07T05:18:52.598Z,4.53
2023-07-07T05:21:22.264Z,4.45
2023-07-07T05:23:52.978Z,4.50
2023-07-07T05:26:20.681Z,4.65
2023-07-07T05:28:51.211Z,4.32
2023-07-07T05:31:19.295Z,4.35
2023-07-07T05:33:47.095Z,4.63
2023-07-07T05:36:14.920Z,4.50
2023-07-07T05:38:43.165Z,7.22
2023-07-07T05:41:11.849Z,4.70
2023-07-07T05:43:39.418Z,4.20
2023-07-07T05:46:10.033Z,4.10
2023-07-07T05:48:37.678Z,3.88
2023-07-07T05:51:06.031Z,3.83
2023-07-07T05:53:35.521Z,3.47
2023-07-07T05:56:07.997Z,4.20
2023-07-07T05:58:36.034Z,3.80
2023-07-07T06:01:03.902Z,3.97
2023-07-07T06:03:33.252Z,4.25
2023-07-07T06:06:01.415Z,4.18
2023-07-07T06:08:32.619Z,4.15
2023-07-07T06:11:03.110Z,4.10
2023-07-07T06:13:30.835Z,4.00
2023-07-07T06:15:58.458Z,4.00
2023-07-07T06:18:26.587Z,3.95
2023-07-07T06:20:57.119Z,4.03
2023-07-07T06:23:25.799Z,4.10
2023-07-07T06:25:54.184Z,4.05
2023-07-07T06:28:22.426Z,4.13
2023-07-07T06:30:50.242Z,4.93
2023-07-07T06:33:20.624Z,4.18
2023-07-07T06:35:49.102Z,4.07
2023-07-07T06:38:19.360Z,4.40
2023-07-07T06:40:47.626Z,4.32
2023-07-07T06:43:18.986Z,4.00
2023-07-07T06:45:47.542Z,4.07
2023-07-07T06:48:15.256Z,4.03
2023-07-07T06:50:43.979Z,4.40
2023-07-07T06:53:11.821Z,4.35
2023-07-07T06:55:42.108Z,4.15
2023-07-07T06:58:10.660Z,4.60
2023-07-07T07:00:39.001Z,4.10
2023-07-07T07:03:06.871Z,4.20
2023-07-07T07:05:34.714Z,4.18
2023-07-07T07:08:02.287Z,3.88
2023-07-07T07:10:29.897Z,4.10
2023-07-07T07:12:59.484Z,4.35
2023-07-07T07:15:27.222Z,4.60
2023-07-07T07:17:55.020Z,4.40
2023-07-07T07:20:23.191Z,4.40
2023-07-07T07:22:52.070Z,4.53
2023-07-07T07:25:19.767Z,4.35
2023-07-07T07:27:47.516Z,4.60
2023-07-07T07:30:17.008Z,4.88
2023-07-07T07:32:45.008Z,4.25
2023-07-07T07:35:13.038Z,4.82
2023-07-07T07:37:40.750Z,4.57
2023-07-07T07:40:09.050Z,4.53
2023-07-07T07:42:36.743Z,4.88
2023-07-07T07:45:04.626Z,4.15
2023-07-07T07:47:33.698Z,4.30
2023-07-07T07:50:01.368Z,4.60
2023-07-07T07:52:30.530Z,4.80
2023-07-07T07:54:58.312Z,4.97
2023-07-07T07:57:25.967Z,4.57
2023-07-07T07:59:56.032Z,4.55
2023-07-07T08:02:23.760Z,4.40
2023-07-07T08:04:53.000Z,4.63
2023-07-07T08:07:20.862Z,4.57
2023-07-07T08:09:49.047Z,4.55
2023-07-07T08:12:16.752Z,5.05
2023-07-07T08:14:44.500Z,4.78
2023-07-07T08:17:13.783Z,4.65
2023-07-07T08:19:43.122Z,4.30
2023-07-07T08:22:14.434Z,4.15
2023-07-07T08:24:44.443Z,7.93
2023-07-07T08:29:43.030Z,4.70
2023-07-07T08:32:11.284Z,4.97
2023-07-07T08:34:53.365Z,4.88
2023-07-07T08:37:23.639Z,4.47
2023-07-07T08:39:51.401Z,5.22
2023-07-07T08:42:22.494Z,4.90
2023-07-07T08:44:50.176Z,4.57
2023-07-07T08:47:32.985Z,4.70
2023-07-07T08:50:11.851Z,4.45
2023-07-07T08:52:52.757Z,4.65
2023-07-07T08:55:30.987Z,4.57
2023-07-07T08:58:01.451Z,4.25
2023-07-07T09:00:33.818Z,4.30
2023-07-07T09:03:11.036Z,4.15
2023-07-07T09:05:52.903Z,4.60
2023-07-07T09:08:25.352Z,4.32
2023-07-07T09:11:26.722Z,4.70
2023-07-07T09:13:58.693Z,4.78
2023-07-07T09:16:29.177Z,5.10
2023-07-07T09:18:58.923Z,4.65
2023-07-07T09:21:30.277Z,4.90
2023-07-07T09:24:01.044Z,5.20
2023-07-07T09:26:30.939Z,5.00
2023-07-07T09:28:59.525Z,5.10
2023-07-07T09:31:32.011Z,5.22
2023-07-07T09:34:03.959Z,4.70
2023-07-07T09:36:36.256Z,4.80
2023-07-07T09:39:13.537Z,4.97
2023-07-07T09:41:47.745Z,4.88
2023-07-07T09:44:26.712Z,4.95
2023-07-07T09:46:58.182Z,4.70
2023-07-07T09:49:29.112Z,4.78
2023-07-07T09:52:00.259Z,4.93
2023-07-07T09:54:29.993Z,5.20
2023-07-07T09:56:59.377Z,4.53
2023-07-07T09:59:28.962Z,5.03
2023-07-07T10:01:57.132Z,5.30
2023-07-07T10:04:26.145Z,5.18
2023-07-07T10:06:56.258Z,5.35
2023-07-07T10:09:23.921Z,4.97
2023-07-07T10:12:18.611Z,4.82
2023-07-07T10:14:42.045Z,5.30
2023-07-07T10:17:16.522Z,5.13
2023-07-07T10:19:45.231Z,4.50
2023-07-07T10:22:14.406Z,4.68
2023-07-07T10:24:42.051Z,4.68
2023-07-07T10:27:12.802Z,4.55
2023-07-07T10:29:42.174Z,4.50
2023-07-07T10:32:13.268Z,4.63
2023-07-07T10:34:43.241Z,5.13
2023-07-07T10:37:18.249Z,4.25
2023-07-07T10:39:50.255Z,4.25
2023-07-07T10:42:21.214Z,4.60
2023-07-07T10:44:48.946Z,4.45
2023-07-07T10:47:23.701Z,5.03
2023-07-07T10:49:57.106Z,4.90
2023-07-07T10:55:07.565Z,4.78
2023-07-07T10:57:43.769Z,4.95
2023-07-07T11:00:27.774Z,4.95
2023-07-07T11:03:07.234Z,4.97
2023-07-07T11:05:50.750Z,5.43
2023-07-07T11:08:34.260Z,4.65
2023-07-07T11:11:07.668Z,4.70
2023-07-07T11:13:47.007Z,4.78
2023-07-07T11:16:19.181Z,4.40
2023-07-07T11:18:58.549Z,4.85
2023-07-07T11:21:32.333Z,4.68
2023-07-07T11:24:15.119Z,5.03
2023-07-07T11:27:02.437Z,5.28
2023-07-07T11:29:33.682Z,5.18
2023-07-07T11:32:07.196Z,5.13
2023-07-07T11:34:41.775Z,4.72
2023-07-07T11:37:15.997Z,5.28
2023-07-07T11:39:51.456Z,5.22
2023-07-07T11:42:29.040Z,5.68
2023-07-07T11:45:04.948Z,5.40
2023-07-07T11:47:41.380Z,5.35
2023-07-07T11:50:15.871Z,5.53
2023-07-07T11:52:50.791Z,5.32
2023-07-07T11:55:24.723Z,5.45
2023-07-07T11:57:57.855Z,4.90
2023-07-07T12:00:32.631Z,5.22
2023-07-07T12:03:07.644Z,5.45
2023-07-07T12:05:39.449Z,5.40
2023-07-07T12:08:11.309Z,4.88
2023-07-07T12:10:44.520Z,5.07
2023-07-07T12:13:18.311Z,4.90
2023-07-07T12:15:49.706Z,5.00
2023-07-07T12:18:19.950Z,5.30
2023-07-07T12:20:48.457Z,5.70
2023-07-07T12:23:20.438Z,5.38
2023-07-07T12:25:48.297Z,5.05
2023-07-07T12:28:18.837Z,5.25
2023-07-07T12:30:49.391Z,5.38
2023-07-07T12:33:17.997Z,5.72
2023-07-07T12:35:48.820Z,5.25
2023-07-07T12:38:25.457Z,5.35
2023-07-07T12:40:56.247Z,5.80
2023-07-07T12:43:25.874Z,5.30
2023-07-07T12:45:54.873Z,5.30
2023-07-07T12:48:23.918Z,5.68
2023-07-07T12:50:51.752Z,5.40
2023-07-07T12:53:27.592Z,5.18
2023-07-07T12:55:59.831Z,5.30
2023-07-07T12:58:41.441Z,5.70
2023-07-07T13:01:24.689Z,5.70
2023-07-07T13:04:01.841Z,5.50
2023-07-07T13:06:35.188Z,5.70
2023-07-07T13:09:18.484Z,5.63
2023-07-07T13:11:46.816Z,5.18
2023-07-07T13:14:32.332Z,5.40
2023-07-07T13:17:02.594Z,5.47
2023-07-07T13:19:31.046Z,5.35
2023-07-07T13:22:01.370Z,5.40
2023-07-07T13:24:33.645Z,5.00
2023-07-07T13:27:01.207Z,5.05
2023-07-07T13:29:29.110Z,5.30
2023-07-07T13:31:56.819Z,5.30
2023-07-07T13:34:26.397Z,5.35
2023-07-07T13:36:54.011Z,5.22
2023-07-07T13:39:22.435Z,5.50
2023-07-07T13:41:50.276Z,5.10
2023-07-07T13:44:19.146Z,5.45
2023-07-07T13:46:49.231Z,5.25
2023-07-07T13:49:18.293Z,5.30
2023-07-07T13:51:53.474Z,5.80
2023-07-07T13:54:22.547Z,6.13
2023-07-07T13:56:54.396Z,5.80
2023-07-07T13:59:24.594Z,5.57
2023-07-07T14:01:52.739Z,5.40
2023-07-07T14:04:21.921Z,5.82
2023-07-07T14:06:50.908Z,5.40
2023-07-07T14:09:21.608Z,5.15
2023-07-07T14:11:52.607Z,5.15
2023-07-07T14:14:20.529Z,5.25
2023-07-07T14:16:49.495Z,5.50
2023-07-07T14:19:19.828Z,4.95
2023-07-07T14:21:48.352Z,5.30
2023-07-07T14:24:18.330Z,5.30
2023-07-07T14:26:46.166Z,5.32
2023-07-07T14:29:17.978Z,4.90
2023-07-07T14:31:45.995Z,5.10
2023-07-07T14:34:14.951Z,5.32
2023-07-07T14:36:44.404Z,5.50
2023-07-07T14:39:25.158Z,4.88
2023-07-07T14:41:53.773Z,5.00
2023-07-07T14:44:41.927Z,4.97
2023-07-07T14:47:10.149Z,4.93
2023-07-07T14:49:38.409Z,5.25
2023-07-07T14:52:06.677Z,5.63
2023-07-07T14:54:35.647Z,4.95
2023-07-07T14:57:04.658Z,4.82
2023-07-07T14:59:34.602Z,4.28
2023-07-07T15:02:04.062Z,4.45
2023-07-07T15:04:33.146Z,4.18
2023-07-07T15:07:01.191Z,4.78
2023-07-07T15:09:29.032Z,4.32
2023-07-07T15:11:58.595Z,5.07
2023-07-07T15:14:26.220Z,4.25
2023-07-07T15:16:54.045Z,4.45
2023-07-07T15:19:22.716Z,4.60
2023-07-07T15:21:50.875Z,4.22
2023-07-07T15:24:19.160Z,4.22
2023-07-07T15:26:47.458Z,4.53
2023-07-07T15:29:18.709Z,4.00
2023-07-07T15:31:46.915Z,4.00
2023-07-07T15:34:14.637Z,4.57
2023-07-07T15:36:42.276Z,4.32
2023-07-07T15:39:12.513Z,4.75
2023-07-07T15:41:40.114Z,4.47
2023-07-07T15:44:07.842Z,4.25
2023-07-07T15:46:47.816Z,4.68
2023-07-07T15:49:18.561Z,4.70
2023-07-07T15:51:46.904Z,4.65
2023-07-07T15:54:15.072Z,4.40
2023-07-07T15:56:43.488Z,4.00
2023-07-07T15:59:14.783Z,4.32
2023-07-07T16:01:44.075Z,3.90
2023-07-07T16:04:11.995Z,4.03
2023-07-07T16:06:39.871Z,4.40
2023-07-07T16:09:11.056Z,4.20
2023-07-07T16:11:38.736Z,4.00
2023-07-07T16:14:06.464Z,4.03
2023-07-07T16:16:36.288Z,4.03
2023-07-07T16:19:10.031Z,3.97
2023-07-07T16:21:37.606Z,4.60
2023-07-07T16:24:05.470Z,4.55
2023-07-07T16:26:34.631Z,4.50
2023-07-07T16:29:02.376Z,3.60
2023-07-07T16:31:30.958Z,3.63
2023-07-07T16:33:58.623Z,3.95
2023-07-07T16:36:28.027Z,4.07
2023-07-07T16:38:55.663Z,4.32
2023-07-07T16:41:24.730Z,4.20
2023-07-07T16:43:52.979Z,4.22
2023-07-07T16:46:21.439Z,4.25
2023-07-07T16:48:52.113Z,3.97
2023-07-07T16:51:22.505Z,3.75
2023-07-07T16:53:51.849Z,3.80
2023-07-07T16:56:23.003Z,4.28
2023-07-07T16:58:50.662Z,4.10
2023-07-07T17:01:19.075Z,3.88
2023-07-07T17:03:46.899Z,3.80
2023-07-07T17:06:18.335Z,3.75
2023-07-07T17:08:46.305Z,3.60
2023-07-07T17:11:15.973Z,3.97
2023-07-07T17:13:43.665Z,3.85
2023-07-07T17:16:16.374Z,4.00
2023-07-07T17:18:43.946Z,3.67
2023-07-07T17:21:11.942Z,3.70
2023-07-07T17:23:39.724Z,4.03
2023-07-07T17:26:12.305Z,3.85
2023-07-07T17:28:41.260Z,3.45
2023-07-07T17:31:15.920Z,3.97
2023-07-07T17:33:43.638Z,3.90
2023-07-07T17:36:14.060Z,4.03
2023-07-07T17:38:41.650Z,3.90
2023-07-07T17:41:10.187Z,3.95
2023-07-07T17:43:37.814Z,3.97
2023-07-07T17:46:17.000Z,3.88
2023-07-07T17:48:44.558Z,3.95
2023-07-07T17:51:12.655Z,3.50
2023-07-07T17:53:40.193Z,3.78
2023-07-07T17:56:12.710Z,3.70
2023-07-07T17:58:40.393Z,3.53
2023-07-07T18:01:10.176Z,3.35
2023-07-07T18:03:39.140Z,3.70
2023-07-07T18:06:12.192Z,3.53
2023-07-07T18:08:39.836Z,3.80
2023-07-07T18:11:10.766Z,3.80
2023-07-07T18:13:38.368Z,3.95
2023-07-07T18:16:06.631Z,3.85
2023-07-07T18:18:57.085Z,3.60
2023-07-07T18:21:51.928Z,3.63
2023-07-07T18:24:13.741Z,3.50
2023-07-07T18:26:41.738Z,3.55
2023-07-07T18:29:12.327Z,3.50
2023-07-07T18:31:41.141Z,3.25
2023-07-07T18:34:10.269Z,3.65
2023-07-07T18:39:15.528Z,3.42
2023-07-07T18:41:43.171Z,3.50
2023-07-07T18:44:10.751Z,3.40
2023-07-07T18:46:38.458Z,3.50
2023-07-07T18:49:06.631Z,3.38
2023-07-07T18:51:35.081Z,3.20
2023-07-07T18:54:04.224Z,3.30
2023-07-07T18:56:34.710Z,3.42
2023-07-07T18:59:03.387Z,3.40
2023-07-07T19:01:31.504Z,3.63
2023-07-07T19:03:59.227Z,3.55
2023-07-07T19:06:29.328Z,3.15
2023-07-07T19:08:56.945Z,3.00
2023-07-07T19:11:26.551Z,3.97
2023-07-07T19:13:54.304Z,3.20
2023-07-07T19:16:23.745Z,3.35
2023-07-07T19:18:51.959Z,3.50
2023-07-07T19:21:24.231Z,3.45
2023-07-07T19:23:52.215Z,3.20
2023-07-07T19:26:20.674Z,3.83
2023-07-07T19:28:49.973Z,3.15
2023-07-07T19:31:18.370Z,3.28
2023-07-07T19:33:46.194Z,3.20
2023-07-07T19:36:16.970Z,3.35
2023-07-07T19:38:45.316Z,3.15
2023-07-07T19:41:15.242Z,3.72
2023-07-07T19:43:43.690Z,3.15
2023-07-07T19:46:20.060Z,3.45
2023-07-07T19:48:48.358Z,3.10
2023-07-07T19:51:21.042Z,3.00
2023-07-07T19:53:48.797Z,3.65
2023-07-07T19:56:16.806Z,3.22
2023-07-07T19:58:44.598Z,3.05
2023-07-07T20:01:13.337Z,3.17
2023-07-07T20:03:42.765Z,3.53
2023-07-07T20:06:11.245Z,3.05
2023-07-07T20:08:39.190Z,3.45
2023-07-07T20:11:11.329Z,3.58
2023-07-07T20:13:39.443Z,3.50
2023-07-07T20:16:19.863Z,3.30
2023-07-07T20:18:49.374Z,3.60
2023-07-07T20:21:17.297Z,3.55
2023-07-07T20:23:47.141Z,3.45
2023-07-07T20:26:17.264Z,3.53
2023-07-07T20:28:52.731Z,3.40
2023-07-07T20:31:20.951Z,3.58
2023-07-07T20:33:51.359Z,3.85
2023-07-07T20:36:20.069Z,3.67
2023-07-07T20:38:48.281Z,3.72
2023-07-07T20:41:16.677Z,3.47
2023-07-07T20:43:44.639Z,4.18
2023-07-07T20:46:17.982Z,3.97
2023-07-07T20:48:45.535Z,3.40
2023-07-07T20:51:14.523Z,4.00
2023-07-07T20:53:42.413Z,4.90
2023-07-07T20:56:12.218Z,4.00
2023-07-07T20:58:40.603Z,4.35
2023-07-07T21:01:10.494Z,4.63
2023-07-07T21:03:38.110Z,4.13
2023-07-07T21:06:05.943Z,5.40
2023-07-07T21:08:34.976Z,4.43
2023-07-07T21:11:02.638Z,5.00
2023-07-07T21:13:30.350Z,4.82
2023-07-07T21:15:58.445Z,4.60
2023-07-07T21:18:26.083Z,4.65
2023-07-07T21:20:55.944Z,4.85
2023-07-07T21:23:25.218Z,5.30
2023-07-07T21:25:55.890Z,4.60
2023-07-07T21:28:24.277Z,5.25
2023-07-07T21:30:52.012Z,5.50
2023-07-07T21:33:19.636Z,5.45
2023-07-07T21:35:47.931Z,5.97
2023-07-07T21:38:16.515Z,5.60
2023-07-07T21:40:45.672Z,5.35
2023-07-07T21:43:14.631Z,5.82
2023-07-07T21:45:42.993Z,5.47
2023-07-07T21:48:14.955Z,6.10
2023-07-07T21:50:42.582Z,5.55
2023-07-07T21:53:11.257Z,5.72
2023-07-07T21:55:40.039Z,5.93
2023-07-07T21:58:07.658Z,5.53
2023-07-07T22:00:37.067Z,6.20
2023-07-07T22:03:10.387Z,6.22
2023-07-07T22:05:37.977Z,5.07
2023-07-07T22:08:07.591Z,6.13
2023-07-07T22:10:38.158Z,5.57
2023-07-07T22:13:06.333Z,6.40
2023-07-07T22:15:34.397Z,5.43
2023-07-07T22:18:03.970Z,6.22
2023-07-07T22:20:33.186Z,5.75
2023-07-07T22:23:01.579Z,6.10
2023-07-07T22:25:30.279Z,6.15
2023-07-07T22:27:58.566Z,6.57
2023-07-07T22:30:28.429Z,6.60
2023-07-07T22:32:56.504Z,7.00
2023-07-07T22:35:25.542Z,6.80
2023-07-07T22:37:53.166Z,7.18
2023-07-07T22:40:22.751Z,6.50
2023-07-07T22:42:50.340Z,6.80
2023-07-07T22:45:18.433Z,6.63
2023-07-07T22:47:46.040Z,6.88
2023-07-07T22:50:15.534Z,6.85
2023-07-07T22:52:47.757Z,7.18
2023-07-07T22:55:17.162Z,6.50
2023-07-07T22:57:45.225Z,7.28
2023-07-07T23:00:15.612Z,6.35
2023-07-07T23:02:43.437Z,7.15
2023-07-07T23:05:12.164Z,6.95
2023-07-07T23:07:39.879Z,6.38
2023-07-07T23:10:12.524Z,6.85
2023-07-07T23:12:40.108Z,7.22
2023-07-07T23:15:07.968Z,7.55
2023-07-07T23:17:35.955Z,6.18
2023-07-07T23:20:07.339Z,7.93
2023-07-07T23:22:37.009Z,7.63
2023-07-07T23:25:07.262Z,8.02
2023-07-07T23:27:41.444Z,8.02
2023-07-07T23:30:15.253Z,7.63
2023-07-07T23:32:43.440Z,7.50
2023-07-07T23:35:11.843Z,7.65
2023-07-07T23:37:39.652Z,7.65
2023-07-07T23:40:15.438Z,7.45
2023-07-07T23:42:44.484Z,7.78
2023-07-07T23:45:12.390Z,7.60
2023-07-07T23:47:44.982Z,6.95
2023-07-07T23:50:17.703Z,7.57
2023-07-07T23:52:45.247Z,7.25
2023-07-07T23:55:12.782Z,7.32
2023-07-07T23:57:40.343Z,7.60
